createdAt,value
2019-05-09T00:00:47.938Z,13.60
2019-05-09T00:03:13.777Z,13.50
2019-05-09T00:05:39.390Z,13.50
2019-05-09T00:08:04.756Z,13.50
2019-05-09T00:10:41.083Z,13.50
2019-05-09T00:12:57.125Z,13.40
2019-05-09T00:15:24.205Z,13.40
2019-05-09T00:17:49.469Z,13.30
2019-05-09T00:20:23.868Z,13.40
2019-05-09T00:22:49.202Z,13.30
2019-05-09T00:25:14.560Z,13.30
2019-05-09T00:27:40.104Z,13.30
2019-05-09T00:30:05.803Z,13.20
2019-05-09T00:32:34.854Z,13.20
2019-05-09T00:35:08.842Z,13.20
2019-05-09T00:37:53.592Z,13.20
2019-05-09T00:40:18.690Z,13.30
2019-05-09T00:42:44.163Z,13.20
2019-05-09T00:45:14.490Z,13.20
2019-05-09T00:47:39.893Z,13.20
2019-05-09T00:50:05.287Z,13.20
2019-05-09T00:52:30.920Z,13.20
2019-05-09T00:54:56.323Z,13.20
2019-05-09T00:57:34.018Z,13.10
2019-05-09T00:59:59.422Z,13.10
2019-05-09T01:02:24.771Z,13.10
2019-05-09T01:04:50.143Z,13.10
2019-05-09T01:07:15.538Z,13.10
2019-05-09T01:09:43.903Z,13.10
2019-05-09T01:12:08.937Z,13.10
2019-05-09T01:14:34.410Z,13.10
2019-05-09T01:16:59.763Z,13.10
2019-05-09T01:19:25.236Z,13.10
2019-05-09T01:21:50.638Z,13.10
2019-05-09T01:24:15.984Z,13.10
2019-05-09T01:26:43.369Z,13.20
2019-05-09T01:29:08.425Z,13.20
2019-05-09T01:31:33.782Z,13.20
2019-05-09T01:34:25.183Z,13.20
2019-05-09T01:37:13.920Z,13.20
2019-05-09T01:39:39.019Z,13.20
2019-05-09T01:42:04.582Z,13.20
2019-05-09T01:44:30.182Z,13.20
2019-05-09T01:46:55.578Z,13.20
2019-05-09T01:49:23.236Z,13.30
2019-05-09T01:51:49.854Z,13.20
2019-05-09T01:54:16.678Z,13.20
2019-05-09T01:56:43.081Z,13.20
2019-05-09T01:59:08.619Z,13.30
2019-05-09T02:01:34.485Z,13.30
2019-05-09T02:03:59.910Z,13.30
2019-05-09T02:06:25.274Z,13.30
2019-05-09T02:08:50.977Z,13.30
2019-05-09T02:11:16.324Z,13.30
2019-05-09T02:13:44.063Z,13.30
2019-05-09T02:16:30.435Z,13.30
2019-05-09T02:19:24.140Z,13.30
2019-05-09T02:21:49.671Z,13.30
2019-05-09T02:24:15.031Z,13.30
2019-05-09T02:26:40.471Z,13.30
2019-05-09T02:29:05.953Z,13.30
2019-05-09T02:31:31.316Z,13.30
2019-05-09T02:33:56.662Z,13.30
2019-05-09T02:36:22.043Z,13.20
2019-05-09T02:38:48.763Z,13.30
2019-05-09T02:41:14.472Z,13.30
2019-05-09T02:43:39.827Z,13.30
2019-05-09T02:46:24.758Z,13.30
2019-05-09T02:48:50.118Z,13.30
2019-05-09T02:51:18.155Z,13.30
2019-05-09T02:53:42.479Z,13.30
2019-05-09T02:56:09.182Z,13.30
2019-05-09T02:58:43.127Z,13.30
2019-05-09T03:01:19.057Z,13.30
2019-05-09T03:03:44.546Z,13.30
2019-05-09T03:06:09.900Z,13.30
2019-05-09T03:08:38.190Z,13.20
2019-05-09T03:11:02.266Z,13.20
2019-05-09T03:13:29.033Z,13.20
2019-05-09T03:15:58.653Z,13.20
2019-05-09T03:18:24.143Z,13.20
2019-05-09T03:21:14.396Z,13.20
2019-05-09T03:23:39.756Z,13.20
2019-05-09T03:26:08.434Z,13.10
2019-05-09T03:28:39.456Z,13.10
2019-05-09T03:31:09.123Z,13.10
2019-05-09T03:33:35.542Z,13.10
2019-05-09T03:35:59.442Z,13.10
2019-05-09T03:38:24.927Z,13.00
2019-05-09T03:40:50.289Z,13.00
2019-05-09T03:43:15.654Z,13.00
2019-05-09T03:45:48.127Z,13.00
2019-05-09T03:48:19.851Z,13.00
2019-05-09T03:50:45.224Z,13.00
2019-05-09T03:53:10.582Z,13.00
2019-05-09T03:55:38.340Z,12.90
2019-05-09T03:58:07.992Z,12.90
2019-05-09T04:00:33.397Z,12.90
2019-05-09T04:02:58.759Z,12.90
2019-05-09T04:05:24.110Z,12.90
2019-05-09T04:07:49.499Z,12.90
2019-05-09T04:10:14.864Z,12.90
2019-05-09T04:12:52.836Z,12.90
2019-05-09T04:15:08.449Z,12.90
2019-05-09T04:17:43.966Z,12.90
2019-05-09T04:20:09.347Z,12.90
2019-05-09T04:22:34.722Z,13.00
2019-05-09T04:25:00.115Z,13.00
2019-05-09T04:27:29.863Z,13.00
2019-05-09T04:29:57.364Z,13.10
2019-05-09T04:32:22.303Z,13.10
2019-05-09T04:34:47.712Z,13.10
2019-05-09T04:37:13.062Z,13.10
2019-05-09T04:39:54.108Z,13.20
2019-05-09T04:42:18.490Z,13.20
2019-05-09T04:44:57.117Z,13.20
2019-05-09T04:47:17.358Z,13.20
2019-05-09T04:49:45.341Z,13.30
2019-05-09T04:52:10.969Z,13.30
2019-05-09T04:54:38.264Z,13.30
2019-05-09T04:57:03.320Z,13.30
2019-05-09T04:59:28.743Z,13.40
2019-05-09T05:02:01.011Z,13.40
2019-05-09T05:04:28.230Z,13.40
2019-05-09T05:06:53.762Z,13.50
2019-05-09T05:09:20.991Z,13.50
2019-05-09T05:11:47.138Z,13.60
2019-05-09T05:14:21.543Z,13.60
2019-05-09T05:16:53.219Z,13.60
2019-05-09T05:19:13.938Z,13.60
2019-05-09T05:21:39.306Z,13.60
2019-05-09T05:24:13.192Z,13.70
2019-05-09T05:26:38.572Z,13.70
2019-05-09T05:29:03.932Z,13.60
2019-05-09T05:31:29.342Z,13.70
2019-05-09T05:34:00.423Z,13.70
2019-05-09T05:36:27.815Z,13.70
2019-05-09T05:38:53.082Z,13.80
2019-05-09T05:41:18.492Z,13.80
2019-05-09T05:43:44.889Z,13.70
2019-05-09T05:46:29.407Z,13.80
2019-05-09T05:48:57.605Z,13.80
2019-05-09T05:51:22.159Z,13.80
2019-05-09T05:53:48.157Z,13.80
2019-05-09T05:56:13.622Z,13.80
2019-05-09T05:58:39.115Z,13.80
2019-05-09T06:01:04.925Z,13.90
2019-05-09T06:03:30.374Z,14.00
2019-05-09T06:05:58.209Z,14.10
2019-05-09T06:08:22.747Z,14.00
2019-05-09T06:10:48.370Z,14.00
2019-05-09T06:13:15.074Z,14.00
2019-05-09T06:15:40.443Z,14.10
2019-05-09T06:18:07.981Z,14.10
2019-05-09T06:20:32.922Z,14.10
2019-05-09T06:22:58.445Z,14.10
2019-05-09T06:25:23.783Z,14.20
2019-05-09T06:27:49.487Z,14.20
2019-05-09T06:30:19.298Z,14.30
2019-05-09T06:32:44.654Z,14.40
2019-05-09T06:35:13.046Z,14.40
2019-05-09T06:37:38.414Z,14.50
2019-05-09T06:40:07.918Z,14.60
2019-05-09T06:42:32.722Z,14.60
2019-05-09T06:45:17.967Z,14.70
2019-05-09T06:47:45.047Z,14.80
2019-05-09T06:50:12.270Z,14.80
2019-05-09T06:52:37.708Z,14.80
2019-05-09T06:55:03.511Z,14.80
2019-05-09T06:57:28.883Z,14.80
2019-05-09T06:59:54.263Z,14.80
2019-05-09T07:02:44.582Z,14.80
2019-05-09T07:05:44.075Z,14.80
2019-05-09T07:08:13.251Z,14.90
2019-05-09T07:10:38.598Z,14.90
2019-05-09T07:13:03.987Z,14.80
2019-05-09T07:15:29.455Z,14.80
2019-05-09T07:17:54.813Z,14.80
2019-05-09T07:20:20.170Z,14.90
2019-05-09T07:23:03.780Z,15.00
2019-05-09T07:25:53.911Z,15.10
2019-05-09T07:28:19.258Z,15.10
2019-05-09T07:30:54.025Z,15.20
2019-05-09T07:33:41.332Z,15.10
2019-05-09T07:36:08.580Z,15.10
2019-05-09T07:38:34.322Z,15.20
2019-05-09T07:41:00.657Z,15.30
2019-05-09T07:43:28.147Z,15.30
2019-05-09T07:46:08.906Z,15.30
2019-05-09T07:48:34.657Z,15.50
2019-05-09T07:51:01.080Z,15.50
2019-05-09T07:53:28.355Z,15.50
2019-05-09T07:55:53.439Z,15.60
2019-05-09T07:58:18.859Z,15.60
2019-05-09T08:00:44.392Z,15.70
2019-05-09T08:03:13.056Z,15.70
2019-05-09T08:05:38.543Z,15.80
2019-05-09T08:08:07.337Z,15.70
2019-05-09T08:10:33.293Z,15.80
2019-05-09T08:12:58.878Z,15.90
2019-05-09T08:15:24.225Z,16.00
2019-05-09T08:17:49.662Z,16.20
2019-05-09T08:20:17.381Z,16.30
2019-05-09T08:22:49.609Z,16.40
2019-05-09T08:25:09.134Z,16.40
2019-05-09T08:27:34.495Z,16.60
2019-05-09T08:29:59.851Z,16.60
2019-05-09T08:32:25.315Z,16.60
2019-05-09T08:34:50.666Z,16.70
2019-05-09T08:37:17.565Z,16.80
2019-05-09T08:39:43.207Z,16.90
2019-05-09T08:42:08.889Z,16.80
2019-05-09T08:44:34.343Z,16.90
2019-05-09T08:46:59.702Z,17.00
2019-05-09T08:49:30.959Z,17.10
2019-05-09T08:52:10.258Z,17.00
2019-05-09T08:54:41.155Z,17.10
2019-05-09T08:57:07.669Z,17.10
2019-05-09T08:59:33.292Z,17.20
2019-05-09T09:02:12.203Z,17.30
2019-05-09T09:04:25.712Z,17.50
2019-05-09T09:06:51.195Z,17.50
2019-05-09T09:09:17.994Z,17.60
2019-05-09T09:11:44.263Z,17.70
2019-05-09T09:14:09.656Z,17.70
2019-05-09T09:16:35.011Z,17.90
2019-05-09T09:19:00.514Z,18.10
2019-05-09T09:21:28.409Z,18.00
2019-05-09T09:23:52.838Z,17.80
2019-05-09T09:26:18.480Z,18.20
2019-05-09T09:28:43.994Z,18.70
2019-05-09T09:31:09.351Z,19.10
2019-05-09T09:33:37.432Z,19.30
2019-05-09T09:36:01.813Z,19.40
2019-05-09T09:38:28.121Z,19.40
2019-05-09T09:40:54.631Z,19.30
2019-05-09T09:43:20.070Z,19.50
2019-05-09T09:45:47.833Z,19.70
2019-05-09T09:48:12.430Z,19.80
2019-05-09T09:50:38.444Z,19.70
2019-05-09T09:53:05.063Z,19.70
2019-05-09T09:55:30.427Z,19.70
2019-05-09T09:57:57.858Z,19.40
2019-05-09T10:01:08.978Z,19.40
2019-05-09T10:03:34.670Z,19.50
2019-05-09T10:06:00.033Z,19.20
2019-05-09T10:08:25.474Z,19.30
2019-05-09T10:10:50.858Z,19.20
2019-05-09T10:13:18.334Z,19.20
2019-05-09T10:15:53.058Z,19.10
2019-05-09T10:18:27.564Z,19.30
2019-05-09T10:20:55.705Z,19.30
2019-05-09T10:23:21.746Z,19.20
2019-05-09T10:25:47.206Z,18.90
2019-05-09T10:28:12.576Z,18.60
2019-05-09T10:30:38.377Z,18.70
2019-05-09T10:33:03.945Z,18.90
2019-05-09T10:35:30.184Z,19.00
2019-05-09T10:37:55.537Z,19.30
2019-05-09T10:40:23.807Z,19.50
2019-05-09T10:42:53.471Z,19.50
2019-05-09T10:45:29.555Z,19.40
2019-05-09T10:47:54.893Z,19.40
2019-05-09T10:50:20.575Z,19.40
2019-05-09T10:52:47.997Z,19.50
2019-05-09T10:55:12.950Z,19.50
2019-05-09T10:57:42.455Z,19.50
2019-05-09T11:00:08.491Z,19.40
2019-05-09T11:02:33.066Z,19.40
2019-05-09T11:04:58.511Z,19.40
2019-05-09T11:07:24.579Z,19.40
2019-05-09T11:09:49.948Z,19.30
2019-05-09T11:12:15.303Z,19.30
2019-05-09T11:14:40.662Z,19.30
2019-05-09T11:17:11.567Z,19.30
2019-05-09T11:19:33.158Z,19.30
2019-05-09T11:21:58.724Z,19.20
2019-05-09T11:24:40.512Z,19.30
2019-05-09T11:26:51.533Z,19.10
2019-05-09T11:29:18.713Z,19.00
2019-05-09T11:31:43.882Z,19.10
2019-05-09T11:34:09.279Z,19.10
2019-05-09T11:36:34.639Z,19.20
2019-05-09T11:39:00.877Z,19.30
2019-05-09T11:41:29.424Z,19.30
2019-05-09T11:43:55.867Z,18.80
2019-05-09T11:46:21.191Z,18.60
2019-05-09T11:48:46.554Z,18.10
2019-05-09T11:51:11.911Z,17.60
2019-05-09T11:53:39.959Z,17.60
2019-05-09T11:56:04.404Z,17.50
2019-05-09T11:58:29.764Z,17.50
2019-05-09T12:00:55.126Z,17.60
2019-05-09T12:03:20.482Z,17.60
2019-05-09T12:05:47.625Z,17.70
2019-05-09T12:08:13.124Z,17.60
2019-05-09T12:10:38.756Z,17.60
2019-05-09T12:13:04.146Z,17.80
2019-05-09T12:15:29.553Z,18.00
2019-05-09T12:17:59.266Z,18.30
2019-05-09T12:20:21.978Z,18.60
2019-05-09T12:22:48.490Z,18.90
2019-05-09T12:25:14.086Z,19.10
2019-05-09T12:27:39.444Z,19.30
2019-05-09T12:30:05.246Z,19.30
2019-05-09T12:32:30.698Z,19.40
2019-05-09T12:34:57.735Z,19.20
2019-05-09T12:37:24.479Z,19.50
2019-05-09T12:39:49.842Z,19.50
2019-05-09T12:42:15.251Z,19.70
2019-05-09T12:44:40.659Z,20.00
2019-05-09T12:47:06.138Z,20.00
2019-05-09T12:49:31.639Z,20.00
2019-05-09T12:51:58.101Z,20.00
2019-05-09T12:54:23.975Z,20.30
2019-05-09T12:56:49.365Z,20.50
2019-05-09T12:59:14.726Z,20.60
2019-05-09T13:01:41.383Z,20.70
2019-05-09T13:04:09.477Z,20.90
2019-05-09T13:06:34.053Z,20.90
2019-05-09T13:08:59.410Z,20.70
2019-05-09T13:11:24.776Z,20.80
2019-05-09T13:13:50.209Z,20.80
2019-05-09T13:16:47.505Z,20.70
2019-05-09T13:19:09.503Z,20.70
2019-05-09T13:21:34.907Z,20.70
2019-05-09T13:24:00.717Z,20.80
2019-05-09T13:26:28.549Z,20.80
2019-05-09T13:28:54.161Z,20.70
2019-05-09T13:31:19.641Z,20.70
2019-05-09T13:33:48.485Z,20.70
2019-05-09T13:36:12.995Z,20.60
2019-05-09T13:38:54.132Z,20.40
2019-05-09T13:41:08.404Z,20.00
2019-05-09T13:43:33.071Z,19.80
2019-05-09T13:45:58.882Z,19.70
2019-05-09T13:48:46.767Z,19.80
2019-05-09T13:50:51.503Z,20.00
2019-05-09T13:53:19.233Z,20.00
2019-05-09T13:55:44.297Z,20.00
2019-05-09T13:58:09.679Z,20.10
2019-05-09T14:00:35.038Z,20.10
2019-05-09T14:03:00.404Z,20.10
2019-05-09T14:05:28.840Z,20.10
2019-05-09T14:07:55.026Z,20.10
2019-05-09T14:10:20.182Z,20.50
2019-05-09T14:13:03.753Z,20.60
2019-05-09T14:15:12.726Z,20.70
2019-05-09T14:17:49.145Z,20.70
2019-05-09T14:20:08.706Z,20.50
2019-05-09T14:22:33.234Z,20.70
2019-05-09T14:24:58.646Z,20.90
2019-05-09T14:27:24.634Z,21.00
2019-05-09T14:29:50.097Z,21.10
2019-05-09T14:32:15.856Z,21.20
2019-05-09T14:34:42.670Z,21.30
2019-05-09T14:37:09.477Z,21.30
2019-05-09T14:39:35.369Z,21.00
2019-05-09T14:42:00.736Z,21.20
2019-05-09T14:44:27.737Z,21.30
2019-05-09T14:46:53.309Z,21.30
2019-05-09T14:49:18.678Z,21.30
2019-05-09T14:51:44.565Z,21.50
2019-05-09T14:54:10.279Z,21.40
2019-05-09T14:56:41.116Z,21.30
2019-05-09T14:59:02.700Z,21.30
2019-05-09T15:01:28.915Z,21.10
2019-05-09T15:03:54.598Z,21.00
2019-05-09T15:06:20.014Z,21.10
2019-05-09T15:08:48.093Z,20.90
2019-05-09T15:11:12.698Z,20.80
2019-05-09T15:13:38.822Z,20.80
2019-05-09T15:16:04.201Z,20.90
2019-05-09T15:18:30.027Z,20.70
2019-05-09T15:20:55.386Z,20.70
2019-05-09T15:23:20.773Z,20.70
2019-05-09T15:25:48.064Z,20.70
2019-05-09T15:28:13.194Z,20.70
2019-05-09T15:30:38.679Z,20.60
2019-05-09T15:33:04.502Z,20.50
2019-05-09T15:35:29.910Z,20.50
2019-05-09T15:37:55.387Z,20.30
2019-05-09T15:40:21.171Z,20.20
2019-05-09T15:42:47.850Z,20.20
2019-05-09T15:45:13.814Z,20.10
2019-05-09T15:47:39.323Z,20.10
2019-05-09T15:50:18.469Z,20.10
2019-05-09T15:52:32.552Z,20.00
2019-05-09T15:54:59.010Z,19.90
2019-05-09T15:57:24.460Z,19.80
2019-05-09T15:59:49.910Z,19.70
2019-05-09T16:02:15.372Z,19.50
2019-05-09T16:04:41.791Z,19.30
2019-05-09T16:07:07.174Z,19.10
2019-05-09T16:09:32.565Z,19.10
2019-05-09T16:11:58.033Z,18.90
2019-05-09T16:14:23.383Z,18.80
2019-05-09T16:16:48.743Z,18.70
2019-05-09T16:19:14.190Z,18.70
2019-05-09T16:21:39.548Z,18.80
2019-05-09T16:24:05.035Z,18.70
2019-05-09T16:26:30.384Z,18.60
2019-05-09T16:28:58.157Z,18.60
2019-05-09T16:31:22.861Z,18.60
2019-05-09T16:33:48.295Z,18.60
2019-05-09T16:36:13.692Z,18.70
2019-05-09T16:38:45.366Z,18.60
2019-05-09T16:41:07.729Z,18.60
2019-05-09T16:43:33.159Z,18.60
2019-05-09T16:45:58.515Z,18.60
2019-05-09T16:48:23.906Z,18.50
2019-05-09T16:51:00.587Z,18.50
2019-05-09T16:53:18.417Z,18.50
2019-05-09T16:55:43.270Z,18.40
2019-05-09T16:58:08.777Z,18.40
2019-05-09T17:00:47.667Z,18.30
2019-05-09T17:03:12.206Z,18.20
2019-05-09T17:05:37.710Z,18.10
2019-05-09T17:08:03.084Z,18.10
2019-05-09T17:10:28.464Z,18.10
2019-05-09T17:12:53.862Z,18.00
2019-05-09T17:15:20.546Z,18.00
2019-05-09T17:17:47.661Z,17.90
2019-05-09T17:20:17.406Z,17.90
2019-05-09T17:23:10.376Z,17.80
2019-05-09T17:25:28.188Z,17.70
2019-05-09T17:27:55.886Z,17.60
2019-05-09T17:30:20.902Z,17.60
2019-05-09T17:32:47.481Z,17.50
2019-05-09T17:35:12.915Z,17.50
2019-05-09T17:37:38.670Z,17.50
2019-05-09T17:40:04.148Z,17.50
2019-05-09T17:42:29.653Z,17.40
2019-05-09T17:44:57.782Z,17.40
2019-05-09T17:47:22.074Z,17.20
2019-05-09T17:49:48.648Z,17.20
2019-05-09T17:52:14.018Z,17.10
2019-05-09T17:54:39.927Z,17.10
2019-05-09T17:57:07.838Z,17.00
2019-05-09T17:59:32.829Z,17.00
2019-05-09T18:01:58.603Z,16.90
2019-05-09T18:04:23.962Z,16.90
2019-05-09T18:06:49.359Z,16.80
2019-05-09T18:09:14.772Z,16.70
2019-05-09T18:11:40.146Z,16.60
2019-05-09T18:14:07.846Z,16.60
2019-05-09T18:16:32.911Z,16.50
2019-05-09T18:19:00.210Z,16.40
2019-05-09T18:21:25.567Z,16.30
2019-05-09T18:23:51.031Z,16.30
2019-05-09T18:26:18.551Z,16.20
2019-05-09T18:28:43.670Z,16.20
2019-05-09T18:31:09.167Z,16.10
2019-05-09T18:33:42.314Z,16.00
2019-05-09T18:36:07.677Z,15.90
2019-05-09T18:38:34.543Z,15.80
2019-05-09T18:40:59.997Z,15.80
2019-05-09T18:43:27.435Z,15.70
2019-05-09T18:45:53.142Z,15.60
2019-05-09T18:48:18.736Z,15.50
2019-05-09T18:50:44.273Z,15.40
2019-05-09T18:53:09.683Z,15.40
2019-05-09T18:55:35.054Z,15.30
2019-05-09T18:58:00.569Z,15.20
2019-05-09T19:00:27.135Z,15.10
2019-05-09T19:02:52.482Z,15.00
2019-05-09T19:05:19.750Z,14.90
2019-05-09T19:07:45.181Z,14.80
2019-05-09T19:10:11.075Z,14.70
2019-05-09T19:12:36.451Z,14.70
2019-05-09T19:15:02.719Z,14.60
2019-05-09T19:17:59.099Z,14.50
2019-05-09T19:20:41.166Z,14.50
2019-05-09T19:23:06.667Z,14.40
2019-05-09T19:25:32.538Z,14.30
2019-05-09T19:27:57.979Z,14.20
2019-05-09T19:30:23.337Z,14.10
2019-05-09T19:32:48.735Z,14.10
2019-05-09T19:35:14.082Z,14.00
2019-05-09T19:37:39.433Z,13.90
2019-05-09T19:40:05.069Z,13.90
2019-05-09T19:42:30.430Z,13.80
2019-05-09T19:44:56.189Z,13.80
2019-05-09T19:47:21.523Z,13.70
2019-05-09T19:49:46.878Z,13.70
2019-05-09T19:52:12.255Z,13.60
2019-05-09T19:54:37.611Z,13.50
2019-05-09T19:57:03.010Z,13.50
2019-05-09T19:59:28.663Z,13.40
2019-05-09T20:01:54.026Z,13.30
2019-05-09T20:04:19.405Z,13.30
2019-05-09T20:06:44.768Z,13.30
2019-05-09T20:09:17.168Z,13.20
2019-05-09T20:11:53.016Z,13.10
2019-05-09T20:14:31.294Z,13.10
2019-05-09T20:16:57.175Z,13.10
2019-05-09T20:19:22.630Z,13.00
2019-05-09T20:21:48.112Z,12.90
2019-05-09T20:24:13.474Z,12.90
2019-05-09T20:26:38.846Z,12.90
2019-05-09T20:29:04.210Z,12.80
2019-05-09T20:31:29.566Z,12.90
2019-05-09T20:33:55.011Z,12.80
2019-05-09T20:36:21.993Z,12.80
2019-05-09T20:38:48.343Z,12.70
2019-05-09T20:41:13.911Z,12.70
2019-05-09T20:43:39.512Z,12.70
2019-05-09T20:46:05.076Z,12.70
2019-05-09T20:48:30.689Z,12.70
2019-05-09T20:50:56.225Z,12.70
2019-05-09T20:53:21.795Z,12.70
2019-05-09T20:55:47.414Z,12.70
2019-05-09T20:58:13.070Z,12.60
2019-05-09T21:00:38.998Z,12.60
2019-05-09T21:03:07.869Z,12.60
2019-05-09T21:05:31.730Z,12.60
2019-05-09T21:07:57.266Z,12.60
2019-05-09T21:10:22.914Z,12.50
2019-05-09T21:12:48.541Z,12.50
2019-05-09T21:15:14.182Z,12.40
2019-05-09T21:17:39.747Z,12.40
2019-05-09T21:20:07.286Z,12.40
2019-05-09T21:22:32.979Z,12.40
2019-05-09T21:24:58.515Z,12.30
2019-05-09T21:27:24.056Z,12.30
2019-05-09T21:29:49.621Z,12.30
2019-05-09T21:32:15.170Z,12.30
2019-05-09T21:34:40.563Z,12.30
2019-05-09T21:37:05.910Z,12.30
2019-05-09T21:39:31.330Z,12.30
2019-05-09T21:41:56.715Z,12.30
2019-05-09T21:44:22.063Z,12.30
2019-05-09T21:46:47.523Z,12.30
2019-05-09T21:49:12.870Z,12.30
2019-05-09T21:51:38.239Z,12.30
2019-05-09T21:54:03.723Z,12.30
2019-05-09T21:56:29.146Z,12.30
2019-05-09T21:58:54.526Z,12.30
2019-05-09T22:01:20.619Z,12.30
2019-05-09T22:03:46.040Z,12.30
2019-05-09T22:06:11.430Z,12.30
2019-05-09T22:08:36.848Z,12.30
2019-05-09T22:11:02.314Z,12.30
2019-05-09T22:13:28.814Z,12.30
2019-05-09T22:15:54.171Z,12.30
2019-05-09T22:18:19.670Z,12.30
2019-05-09T22:20:45.025Z,12.30
2019-05-09T22:23:11.454Z,12.30
2019-05-09T22:25:36.834Z,12.30
2019-05-09T22:28:02.206Z,12.30
2019-05-09T22:30:27.708Z,12.30
2019-05-09T22:32:53.056Z,12.30
2019-05-09T22:35:19.494Z,12.40
2019-05-09T22:37:44.865Z,12.40
2019-05-09T22:40:11.191Z,12.40
2019-05-09T22:42:36.675Z,12.40
2019-05-09T22:45:02.489Z,12.40
2019-05-09T22:47:27.928Z,12.40
2019-05-09T22:49:53.806Z,12.40
2019-05-09T22:52:19.153Z,12.40
2019-05-09T22:54:44.560Z,12.40
2019-05-09T22:57:09.906Z,12.40
2019-05-09T22:59:35.267Z,12.40
2019-05-09T23:02:06.484Z,12.30
2019-05-09T23:04:27.630Z,12.30
2019-05-09T23:06:53.046Z,12.30
2019-05-09T23:09:18.390Z,12.20
2019-05-09T23:11:43.797Z,12.20
2019-05-09T23:14:09.218Z,12.20
2019-05-09T23:16:36.725Z,12.10
2019-05-09T23:19:02.119Z,12.00
2019-05-09T23:21:28.943Z,12.00
2019-05-09T23:24:02.678Z,12.00
2019-05-09T23:26:28.152Z,11.90
2019-05-09T23:28:53.499Z,11.80
2019-05-09T23:31:23.474Z,11.80
2019-05-09T23:33:49.153Z,11.70
2019-05-09T23:36:14.507Z,11.70
2019-05-09T23:38:57.672Z,11.70
2019-05-09T23:41:24.419Z,11.60
2019-05-09T23:43:49.825Z,11.50
2019-05-09T23:46:15.165Z,11.50
2019-05-09T23:48:41.153Z,11.50
2019-05-09T23:51:06.530Z,11.40
2019-05-09T23:53:37.368Z,11.40
2019-05-09T23:56:20.582Z,11.30
2019-05-09T23:59:03.770Z,11.30
